Time;durP1;ratioP1;P1;durP2;ratioP2;P2;SDS_P1;SDS_P2;PMS_P1;PMS_P2;Temp;Humidity;BMP_temperature;BMP_pressure;BME280_temperature;BME280_humidity;BME280_pressure;Samples;Min_cycle;Max_cycle;Signal;HPM_P1;HPM_P2
2023/09/11 00:00:50;;;;;;;16.90;9.70;;;;;;;23.24;94.77;101177.81;5095804;28;20031;-89
2023/09/11 00:03:18;;;;;;;10.88;9.05;;;;;;;23.20;95.43;101179.53;5112860;28;20030;-89
2023/09/11 00:05:51;;;;;;;14.75;9.30;;;;;;;23.10;94.43;101174.91;5112206;28;20019;-89
2023/09/11 00:08:17;;;;;;;18.17;9.27;;;;;;;23.06;94.51;101174.66;5111858;28;20038;-89
2023/09/11 00:10:42;;;;;;;13.57;9.23;;;;;;;23.05;93.93;101172.16;5112243;28;20035;-90
2023/09/11 00:13:08;;;;;;;17.98;10.02;;;;;;;23.01;93.86;101169.16;5095249;28;20495;-90
2023/09/11 00:15:36;;;;;;;16.90;9.90;;;;;;;23.02;94.49;101173.56;5115767;28;20076;-90
2023/09/11 00:18:07;;;;;;;17.90;10.00;;;;;;;22.99;93.96;101163.09;5098674;28;20121;-90
2023/09/11 00:20:34;;;;;;;18.33;9.98;;;;;;;22.94;94.09;101168.66;5116598;28;20030;-90
2023/09/11 00:23:00;;;;;;;17.30;9.70;;;;;;;22.95;94.43;101167.56;5082594;28;20034;-90
2023/09/11 00:25:28;;;;;;;16.60;9.82;;;;;;;22.90;94.76;101160.13;5115891;28;20035;-89
2023/09/11 00:27:57;;;;;;;18.33;9.63;;;;;;;22.87;94.89;101166.25;5115881;28;20036;-89
2023/09/11 00:30:25;;;;;;;13.45;9.65;;;;;;;22.82;95.44;101157.97;5115774;28;20027;-89
2023/09/11 00:32:51;;;;;;;13.98;10.02;;;;;;;22.78;96.08;101163.28;5115832;28;20024;-89
2023/09/11 00:35:25;;;;;;;14.30;10.23;;;;;;;22.74;96.26;101164.97;5115490;28;20031;-89
2023/09/11 00:37:51;;;;;;;21.98;10.98;;;;;;;22.69;96.44;101164.19;5115274;28;20458;-89
2023/09/11 00:40:16;;;;;;;15.13;11.50;;;;;;;22.66;96.71;101150.94;5115550;28;20027;-89
2023/09/11 00:42:44;;;;;;;18.23;11.10;;;;;;;22.62;97.56;101153.47;5115254;28;20289;-90
2023/09/11 00:45:14;;;;;;;16.85;11.20;;;;;;;22.57;97.49;101151.56;5116093;28;20114;-89
2023/09/11 00:47:45;;;;;;;18.17;10.20;;;;;;;22.56;97.83;101151.88;5115396;28;20070;-89
2023/09/11 00:50:14;;;;;;;17.10;10.75;;;;;;;22.54;98.13;101156.84;5115329;28;20035;-89
2023/09/11 00:52:43;;;;;;;16.27;10.95;;;;;;;22.51;98.21;101161.00;5115362;28;20019;-89
2023/09/11 00:55:17;;;;;;;14.93;10.48;;;;;;;22.47;97.92;101154.41;5115257;28;20122;-89
2023/09/11 00:57:55;;;;;;;13.45;11.18;;;;;;;22.39;98.39;101160.56;5098403;28;20552;-90
2023/09/11 01:00:24;;;;;;;15.63;10.83;;;;;;;22.33;100.00;101153.41;5098547;28;20528;-90
2023/09/11 01:03:01;;;;;;;14.13;10.75;;;;;;;22.31;99.43;101158.34;5115121;28;20387;-90
2023/09/11 01:05:37;;;;;;;14.85;10.60;;;;;;;22.27;99.76;101152.59;5115131;28;20440;-90
2023/09/11 01:08:07;;;;;;;17.00;10.82;;;;;;;22.23;99.78;101155.13;5114712;28;20043;-89
2023/09/11 01:10:36;;;;;;;15.15;10.90;;;;;;;22.20;99.89;101149.31;5098876;28;20468;-90
2023/09/11 01:13:07;;;;;;;13.60;11.07;;;;;;;22.17;100.00;101155.41;5115058;28;20065;-90
2023/09/11 01:15:38;;;;;;;20.20;11.18;;;;;;;22.13;100.00;101157.09;5114771;28;20105;-91
2023/09/11 01:18:15;;;;;;;15.27;10.55;;;;;;;22.11;100.00;101148.28;5115201;28;20059;-90
2023/09/11 01:21:14;;;;;;;13.25;9.90;;;;;;;22.10;99.74;101147.47;5114999;28;20114;-91
2023/09/11 01:23:57;;;;;;;14.90;10.38;;;;;;;22.05;99.77;101153.00;5115141;28;20027;-90
2023/09/11 01:26:35;;;;;;;16.60;10.33;;;;;;;22.01;100.00;101149.16;5113590;28;20118;-91
2023/09/11 01:29:11;;;;;;;15.50;10.63;;;;;;;21.99;100.00;101151.38;5115095;28;20040;-90
2023/09/11 01:31:42;;;;;;;18.90;10.73;;;;;;;21.94;100.00;101143.97;5114892;28;20027;-90
2023/09/11 01:34:08;;;;;;;17.13;10.38;;;;;;;21.92;100.00;101148.94;5114508;28;20027;-90
2023/09/11 01:36:36;;;;;;;15.70;9.97;;;;;;;21.89;100.00;101146.75;5097360;28;20494;-91
2023/09/11 01:39:03;;;;;;;14.20;10.25;;;;;;;21.90;100.00;101143.69;5114143;28;20024;-90
2023/09/11 01:41:35;;;;;;;13.23;10.20;;;;;;;21.85;100.00;101140.97;5114411;28;20039;-90
2023/09/11 01:44:07;;;;;;;18.50;9.77;;;;;;;21.87;100.00;101141.50;5114240;28;20047;-90
2023/09/11 01:46:32;;;;;;;16.53;10.00;;;;;;;21.85;100.00;101137.38;5114496;28;20077;-90
2023/09/11 01:49:03;;;;;;;13.20;9.40;;;;;;;21.81;100.00;101141.81;5113932;28;20429;-90
2023/09/11 01:51:30;;;;;;;19.40;9.75;;;;;;;21.79;100.00;101131.06;5114299;28;20076;-90
2023/09/11 01:53:58;;;;;;;17.10;9.50;;;;;;;21.78;100.00;101134.94;5113838;28;20196;-90
2023/09/11 01:56:24;;;;;;;12.40;10.43;;;;;;;21.76;100.00;101131.63;5114137;28;20043;-89
2023/09/11 01:58:56;;;;;;;17.20;9.60;;;;;;;21.71;100.00;101131.66;5113998;28;20463;-90
2023/09/11 02:01:22;;;;;;;17.92;9.98;;;;;;;21.68;100.00;101133.03;5114114;28;20023;-90
2023/09/11 02:03:47;;;;;;;17.47;10.57;;;;;;;21.67;100.00;101128.63;5113649;28;20027;-90
2023/09/11 02:06:12;;;;;;;17.05;9.95;;;;;;;21.63;100.00;101129.47;5113723;28;20534;-90
2023/09/11 02:08:38;;;;;;;15.03;9.27;;;;;;;21.64;100.00;101129.22;5113237;28;20062;-90
2023/09/11 02:11:04;;;;;;;14.43;9.83;;;;;;;21.61;100.00;101127.00;5097037;28;20028;-90
2023/09/11 02:13:32;;;;;;;13.27;9.82;;;;;;;21.58;100.00;101123.97;5114236;28;20447;-90
2023/09/11 02:15:58;;;;;;;17.10;9.87;;;;;;;21.54;100.00;101123.72;5113647;28;20391;-90
2023/09/11 02:18:23;;;;;;;15.20;10.05;;;;;;;21.53;100.00;101130.34;5113699;28;20023;-90
2023/09/11 02:20:49;;;;;;;14.67;10.23;;;;;;;21.51;100.00;101122.34;5113660;28;20536;-90
2023/09/11 02:23:18;;;;;;;15.93;9.73;;;;;;;21.47;100.00;101112.13;5113273;28;20070;-89
2023/09/11 02:25:47;;;;;;;13.63;9.68;;;;;;;21.44;100.00;101116.28;5113901;28;20027;-90
2023/09/11 02:28:16;;;;;;;14.70;9.60;;;;;;;21.43;100.00;101122.09;5113551;28;20494;-90
2023/09/11 02:30:41;;;;;;;17.67;9.82;;;;;;;21.34;100.00;101114.38;5113387;28;20357;-90
2023/09/11 02:33:09;;;;;;;17.50;9.87;;;;;;;21.34;100.00;101111.59;5113301;28;20034;-90
2023/09/11 02:35:34;;;;;;;14.57;9.52;;;;;;;21.33;100.00;101122.94;5113398;28;20036;-90
2023/09/11 02:38:03;;;;;;;16.77;9.37;;;;;;;21.29;100.00;101113.56;5113136;28;20054;-90
2023/09/11 02:40:28;;;;;;;19.33;10.23;;;;;;;21.25;100.00;101115.25;5113092;28;20530;-90
2023/09/11 02:42:54;;;;;;;18.37;9.77;;;;;;;21.26;100.00;101116.88;5112809;28;20110;-90
2023/09/11 02:45:25;;;;;;;16.07;9.73;;;;;;;21.20;100.00;101113.34;5096418;28;20061;-89
2023/09/11 02:47:55;;;;;;;13.03;9.43;;;;;;;21.16;100.00;101109.47;5113230;28;20679;-90
2023/09/11 02:50:24;;;;;;;18.13;10.55;;;;;;;21.11;100.00;101109.47;5097386;28;20039;-90
2023/09/11 02:52:52;;;;;;;13.73;9.95;;;;;;;21.11;100.00;101120.50;5113029;28;20023;-90
2023/09/11 02:55:20;;;;;;;14.10;10.13;;;;;;;21.09;100.00;101117.22;5112933;28;20110;-90
2023/09/11 02:57:45;;;;;;;13.77;10.00;;;;;;;21.06;100.00;101113.09;5113130;28;20122;-90
2023/09/11 03:00:16;;;;;;;16.00;9.87;;;;;;;21.00;100.00;101112.25;5112970;28;20023;-90
2023/09/11 03:02:42;;;;;;;15.60;9.88;;;;;;;21.01;100.00;101110.34;5112802;28;20122;-90
2023/09/11 03:05:08;;;;;;;14.47;9.50;;;;;;;20.99;100.00;101109.78;5112989;28;20118;-90
2023/09/11 03:07:33;;;;;;;15.13;9.80;;;;;;;20.95;100.00;101098.50;5112750;28;20540;-90
2023/09/11 03:10:01;;;;;;;14.90;9.93;;;;;;;20.91;100.00;101107.63;5112946;28;20265;-90
2023/09/11 03:12:28;;;;;;;14.38;9.45;;;;;;;20.85;100.00;101102.09;5112887;28;20026;-91
2023/09/11 03:14:53;;;;;;;12.63;9.67;;;;;;;20.84;100.00;101102.38;5112986;28;20032;-90
2023/09/11 03:17:21;;;;;;;17.88;9.88;;;;;;;20.84;100.00;101094.09;5112856;28;20027;-91
2023/09/11 03:19:46;;;;;;;14.43;10.37;;;;;;;20.83;100.00;101097.94;5112922;28;20036;-90
2023/09/11 03:22:12;;;;;;;17.50;9.93;;;;;;;20.78;100.00;101093.28;5112679;28;20038;-90
2023/09/11 03:24:39;;;;;;;15.77;9.17;;;;;;;20.77;100.00;101086.13;5112457;28;20027;-90
2023/09/11 03:27:05;;;;;;;16.33;9.70;;;;;;;20.69;100.00;101083.94;5112816;28;20424;-90
2023/09/11 03:29:35;;;;;;;15.10;9.73;;;;;;;20.68;100.00;101088.63;5112815;28;20119;-89
2023/09/11 03:32:01;;;;;;;16.00;10.32;;;;;;;20.65;100.00;101077.28;5112758;28;20039;-90
2023/09/11 03:34:26;;;;;;;18.73;10.00;;;;;;;20.62;100.00;101075.91;5112852;28;20375;-89
2023/09/11 03:36:54;;;;;;;13.60;9.83;;;;;;;20.58;100.00;101072.06;5113714;28;20464;-90
2023/09/11 03:39:22;;;;;;;20.23;9.98;;;;;;;20.58;100.00;101076.72;5112058;28;20114;-89
2023/09/11 03:41:50;;;;;;;13.68;10.02;;;;;;;20.55;100.00;101072.63;5112638;28;20019;-90
2023/09/11 03:44:17;;;;;;;17.45;9.98;;;;;;;20.54;100.00;101084.75;5112295;28;20086;-90
2023/09/11 03:46:43;;;;;;;16.52;9.35;;;;;;;20.52;100.00;101073.16;5095752;28;20039;-90
2023/09/11 03:49:16;;;;;;;13.63;9.73;;;;;;;20.50;100.00;101078.13;5113746;28;20360;-89
2023/09/11 03:51:41;;;;;;;18.20;10.05;;;;;;;20.50;100.00;101070.66;5084642;28;20062;-89
2023/09/11 03:54:09;;;;;;;18.23;9.60;;;;;;;20.50;100.00;101073.44;5116389;28;20059;-90
2023/09/11 03:56:35;;;;;;;13.25;8.60;;;;;;;20.50;100.00;101067.09;5116323;28;20459;-90
2023/09/11 03:59:00;;;;;;;12.37;9.17;;;;;;;20.49;100.00;101063.53;5116054;28;20042;-89
2023/09/11 04:01:26;;;;;;;15.67;9.50;;;;;;;20.51;100.00;101064.06;5116097;28;20039;-90
2023/09/11 04:03:59;;;;;;;17.60;9.85;;;;;;;20.46;100.00;101052.22;5116791;28;20031;-90
2023/09/11 04:06:27;;;;;;;13.00;9.27;;;;;;;20.42;100.00;101051.97;5100685;28;20100;-90
2023/09/11 04:09:00;;;;;;;13.37;8.70;;;;;;;20.44;100.00;101049.72;5115793;28;20030;-91
2023/09/11 04:11:29;;;;;;;14.70;9.50;;;;;;;20.43;100.00;101050.00;5100337;28;20046;-89
2023/09/11 04:13:57;;;;;;;18.42;10.10;;;;;;;20.40;100.00;101050.56;5115981;28;20027;-89
2023/09/11 04:16:23;;;;;;;19.48;9.60;;;;;;;20.37;100.00;101048.38;5116610;28;20471;-89
2023/09/11 04:18:50;;;;;;;13.50;9.70;;;;;;;20.35;100.00;101048.66;5115456;28;20032;-89
2023/09/11 04:21:19;;;;;;;21.88;10.40;;;;;;;20.32;100.00;101044.50;5115828;28;20474;-89
2023/09/11 04:23:47;;;;;;;14.60;9.32;;;;;;;20.32;100.00;101039.00;5099066;28;20073;-89
2023/09/11 04:26:16;;;;;;;17.37;9.37;;;;;;;20.32;100.00;101038.19;5115976;28;20039;-89
2023/09/11 04:28:42;;;;;;;18.63;9.60;;;;;;;20.31;100.00;101033.75;5115973;28;20028;-89
2023/09/11 04:31:08;;;;;;;12.32;9.38;;;;;;;20.27;100.00;101029.91;5115648;28;20034;-90
2023/09/11 04:33:34;;;;;;;14.03;9.00;;;;;;;20.26;100.00;101031.84;5115338;28;20129;-89
2023/09/11 04:35:59;;;;;;;15.15;9.18;;;;;;;20.23;100.00;101031.59;5115523;28;20094;-90
2023/09/11 04:38:27;;;;;;;14.40;9.43;;;;;;;20.22;100.00;101039.00;5115617;28;20028;-90
2023/09/11 04:40:56;;;;;;;16.55;9.43;;;;;;;20.17;100.00;101033.50;5115566;28;20020;-90
2023/09/11 04:43:23;;;;;;;14.25;9.18;;;;;;;20.15;100.00;101039.28;5115179;28;20043;-90
2023/09/11 04:45:48;;;;;;;13.77;9.45;;;;;;;20.18;100.00;101045.34;5098889;28;20101;-90
2023/09/11 04:48:16;;;;;;;21.60;10.03;;;;;;;20.16;100.00;101046.44;5115479;28;20391;-90
2023/09/11 04:50:44;;;;;;;14.85;9.10;;;;;;;20.14;100.00;101048.66;5115466;28;20039;-90
2023/09/11 04:53:10;;;;;;;15.77;10.23;;;;;;;20.12;100.00;101042.59;5116471;28;20027;-90
2023/09/11 04:55:40;;;;;;;15.18;9.73;;;;;;;20.11;100.00;101051.13;5098218;28;20600;-89
2023/09/11 04:58:06;;;;;;;13.13;9.50;;;;;;;20.10;100.00;101053.03;5115218;28;20032;-89
2023/09/11 05:00:31;;;;;;;17.02;10.25;;;;;;;20.10;100.00;101054.97;5115071;28;20034;-89
2023/09/11 05:02:57;;;;;;;12.23;9.60;;;;;;;20.07;100.00;101050.84;5098125;28;20038;-89
2023/09/11 05:05:22;;;;;;;19.30;9.93;;;;;;;20.07;100.00;101052.78;5097899;28;20036;-89
2023/09/11 05:07:51;;;;;;;15.93;9.85;;;;;;;20.02;100.00;101056.38;5114763;28;20070;-90
2023/09/11 05:10:16;;;;;;;14.05;9.38;;;;;;;20.03;100.00;101054.44;5115143;28;20055;-89
2023/09/11 05:12:43;;;;;;;17.10;9.50;;;;;;;20.02;100.00;101055.50;5114697;28;20070;-90
2023/09/11 05:15:12;;;;;;;19.10;9.65;;;;;;;20.04;100.00;101056.09;5114843;28;20134;-89
2023/09/11 05:17:42;;;;;;;13.47;9.63;;;;;;;20.03;100.00;101060.75;5115976;27;20527;-89
2023/09/11 05:20:30;;;;;;;21.77;8.90;;;;;;;20.05;100.00;101063.22;5114411;28;20037;-93
2023/09/11 05:22:59;;;;;;;21.17;9.68;;;;;;;20.02;100.00;101056.38;5099821;28;20115;-92
2023/09/11 05:25:24;;;;;;;18.17;9.25;;;;;;;20.00;100.00;101058.53;5114271;28;20026;-90
2023/09/11 05:27:53;;;;;;;19.60;9.60;;;;;;;20.03;100.00;101060.75;5113848;28;20023;-90
2023/09/11 05:30:23;;;;;;;21.40;9.38;;;;;;;20.04;100.00;101061.59;5114526;28;20024;-89
2023/09/11 05:32:52;;;;;;;17.75;9.07;;;;;;;20.07;100.00;101066.56;5098383;28;20054;-89
2023/09/11 05:35:19;;;;;;;18.85;9.30;;;;;;;20.04;100.00;101062.41;5114547;28;20058;-89
2023/09/11 05:37:47;;;;;;;19.05;9.60;;;;;;;20.06;100.00;101064.88;5114051;28;20032;-89
2023/09/11 05:40:12;;;;;;;17.13;8.83;;;;;;;20.09;100.00;101062.44;5114467;28;20144;-89
2023/09/11 05:42:40;;;;;;;17.38;8.80;;;;;;;20.08;100.00;101069.03;5114212;28;20479;-89
2023/09/11 05:45:09;;;;;;;16.20;9.18;;;;;;;20.10;100.00;101077.84;5114007;28;20077;-89
2023/09/11 05:47:38;;;;;;;21.17;9.40;;;;;;;20.07;100.00;101074.81;5114019;28;20126;-89
2023/09/11 05:50:05;;;;;;;14.70;8.60;;;;;;;20.09;100.00;101070.69;5097358;28;20086;-89
2023/09/11 05:52:30;;;;;;;15.10;8.30;;;;;;;20.12;100.00;101083.91;5114040;28;20030;-89
2023/09/11 05:54:58;;;;;;;15.50;8.50;;;;;;;20.11;100.00;101078.69;5113981;28;20035;-89
2023/09/11 05:57:29;;;;;;;14.80;8.90;;;;;;;20.15;100.00;101082.53;5097163;28;20035;-89
2023/09/11 06:00:09;;;;;;;16.17;9.23;;;;;;;20.22;100.00;101085.00;5113888;28;20020;-89
2023/09/11 06:02:45;;;;;;;14.43;8.80;;;;;;;20.24;100.00;101091.06;5098194;28;20467;-89
2023/09/11 06:05:11;;;;;;;18.65;8.65;;;;;;;20.31;100.00;101088.88;5114683;28;20128;-89
2023/09/11 06:07:37;;;;;;;18.03;9.40;;;;;;;20.33;100.00;101092.19;5114056;28;20074;-90
2023/09/11 06:10:04;;;;;;;20.70;9.60;;;;;;;20.38;100.00;101091.38;5113435;28;20116;-89
2023/09/11 06:12:30;;;;;;;16.87;9.17;;;;;;;20.37;100.00;101097.97;5112591;28;20031;-91
2023/09/11 06:14:56;;;;;;;17.45;9.00;;;;;;;20.39;100.00;101098.50;5113326;28;20126;-90
2023/09/11 06:17:21;;;;;;;18.27;8.93;;;;;;;20.40;100.00;101100.16;5113288;28;20108;-89
2023/09/11 06:19:51;;;;;;;14.23;8.63;;;;;;;20.41;100.00;101099.06;5113443;28;20070;-89
2023/09/11 06:22:19;;;;;;;16.48;8.40;;;;;;;20.48;100.00;101096.88;5113451;28;20118;-89
2023/09/11 06:24:45;;;;;;;15.10;8.98;;;;;;;20.50;100.00;101098.22;5113449;28;20067;-89
2023/09/11 06:27:10;;;;;;;14.83;9.20;;;;;;;20.54;100.00;101089.44;5096017;28;20036;-90
2023/09/11 06:29:39;;;;;;;15.27;9.10;;;;;;;20.60;100.00;101091.09;5113222;28;20112;-89
2023/09/11 06:32:08;;;;;;;14.87;8.90;;;;;;;20.60;100.00;101089.13;5113784;28;20301;-89
2023/09/11 06:34:34;;;;;;;13.43;8.48;;;;;;;20.66;100.00;101101.84;5113142;28;20032;-89
2023/09/11 06:37:00;;;;;;;18.67;9.40;;;;;;;20.67;100.00;101100.75;5113029;28;20027;-89
2023/09/11 06:39:25;;;;;;;15.53;9.17;;;;;;;20.66;100.00;101098.25;5112825;28;20031;-89
2023/09/11 06:42:01;;;;;;;20.40;9.25;;;;;;;20.65;100.00;101100.19;5113278;28;20027;-89
2023/09/11 06:44:28;;;;;;;13.15;9.38;;;;;;;20.67;100.00;101097.16;5112702;28;20513;-89
2023/09/11 06:46:56;;;;;;;12.37;9.03;;;;;;;20.66;100.00;101099.09;5112523;28;20115;-89
2023/09/11 06:49:24;;;;;;;13.65;9.25;;;;;;;20.66;100.00;101101.84;5113020;28;20032;-89
2023/09/11 06:51:50;;;;;;;16.63;9.48;;;;;;;20.69;100.00;101100.47;5112757;28;20045;-89
2023/09/11 06:54:15;;;;;;;17.53;9.27;;;;;;;20.71;100.00;101105.69;5112492;28;20019;-89
2023/09/11 06:56:44;;;;;;;18.33;9.35;;;;;;;20.70;100.00;101102.13;5114085;28;20366;-89
2023/09/11 06:59:12;;;;;;;16.08;9.68;;;;;;;20.72;100.00;101113.69;5112812;28;20035;-89
2023/09/11 07:01:41;;;;;;;14.93;9.67;;;;;;;20.72;100.00;101108.19;5112841;28;20028;-89
2023/09/11 07:04:11;;;;;;;19.35;10.40;;;;;;;20.74;100.00;101105.16;5112974;28;20042;-89
2023/09/11 07:06:39;;;;;;;17.52;9.50;;;;;;;20.78;100.00;101101.53;5113344;28;20143;-89
2023/09/11 07:09:10;;;;;;;19.10;10.27;;;;;;;20.80;100.00;101098.50;5112233;28;20028;-89
2023/09/11 07:11:36;;;;;;;17.65;10.23;;;;;;;20.84;100.00;101092.16;5096600;28;20459;-89
2023/09/11 07:14:05;;;;;;;14.27;10.37;;;;;;;20.87;100.00;101088.03;5112890;28;20038;-89
2023/09/11 07:16:31;;;;;;;21.42;10.25;;;;;;;20.90;100.00;101087.47;5112687;28;20158;-89
2023/09/11 07:19:01;;;;;;;18.42;10.68;;;;;;;20.92;100.00;101082.50;5112682;28;20036;-89
2023/09/11 07:21:30;;;;;;;15.93;10.83;;;;;;;20.98;100.00;101091.59;5112690;28;20028;-90
2023/09/11 07:23:56;;;;;;;19.92;11.23;;;;;;;21.00;100.00;101089.38;5113433;28;20455;-90
2023/09/11 07:26:24;;;;;;;17.85;10.43;;;;;;;21.11;100.00;101087.41;5117643;28;20085;-90
2023/09/11 07:29:02;;;;;;;19.40;10.90;;;;;;;21.20;100.00;101094.03;5116559;28;20028;-89
2023/09/11 07:31:28;;;;;;;17.95;11.40;;;;;;;21.27;99.74;101096.47;5116578;28;20089;-89
2023/09/11 07:33:54;;;;;;;17.10;11.57;;;;;;;21.31;100.00;101097.56;5116655;28;20023;-90
2023/09/11 07:36:20;;;;;;;19.77;11.60;;;;;;;21.38;99.37;101104.44;5116905;28;20032;-89
2023/09/11 07:38:53;;;;;;;21.60;12.40;;;;;;;21.45;98.47;101106.06;5099370;28;20043;-89
2023/09/11 07:41:20;;;;;;;20.00;13.35;;;;;;;21.50;98.32;101109.66;5117168;28;20031;-89
2023/09/11 07:46:38;;;;;;;19.45;12.32;;;;;;;21.66;99.35;101109.59;5117917;28;20039;-89
2023/09/11 07:49:11;;;;;;;19.07;13.20;;;;;;;21.71;97.84;101106.78;5099458;28;20467;-91
2023/09/11 07:51:39;;;;;;;22.65;13.77;;;;;;;21.75;97.99;101105.13;5116498;28;20506;-88
2023/09/11 07:54:10;;;;;;;23.42;13.30;;;;;;;21.82;99.41;101113.94;5115662;28;20042;-88
2023/09/11 07:56:38;;;;;;;22.67;13.70;;;;;;;21.85;97.73;101118.03;5116629;28;20035;-89
2023/09/11 07:59:06;;;;;;;21.60;14.45;;;;;;;21.92;97.83;101123.25;5117228;28;20028;-88
2023/09/11 08:01:34;;;;;;;24.47;16.07;;;;;;;21.92;97.50;101121.31;5116617;28;20087;-88
2023/09/11 08:03:59;;;;;;;26.00;15.25;;;;;;;21.98;98.05;101128.47;5116205;28;20055;-89
2023/09/11 08:06:27;;;;;;;21.35;15.63;;;;;;;22.04;97.78;101141.13;5114046;28;20134;-88
2023/09/11 08:08:55;;;;;;;27.97;16.90;;;;;;;22.11;98.11;101126.19;5102612;28;20384;-89
2023/09/11 08:11:21;;;;;;;22.63;17.02;;;;;;;22.15;97.93;101128.06;5096019;28;20039;-92
2023/09/11 08:13:55;;;;;;;23.67;16.38;;;;;;;22.24;97.49;101142.94;5095799;28;20031;-92
2023/09/11 08:16:20;;;;;;;25.15;16.63;;;;;;;22.28;96.75;101134.06;5096657;28;20028;-93
2023/09/11 08:18:46;;;;;;;26.57;16.23;;;;;;;22.38;97.71;101139.53;5101853;28;20506;-92
2023/09/11 08:21:19;;;;;;;27.13;17.17;;;;;;;22.43;96.51;101150.56;5095884;28;20024;-93
2023/09/11 08:23:49;;;;;;;24.10;17.42;;;;;;;22.46;96.02;101146.41;5096365;28;20055;-92
2023/09/11 08:26:26;;;;;;;26.25;17.27;;;;;;;22.50;96.30;101139.19;5095459;28;20115;-90
2023/09/11 08:28:59;;;;;;;28.27;17.05;;;;;;;22.55;96.25;101137.19;5064933;28;20040;-92
2023/09/11 08:31:24;;;;;;;26.55;17.50;;;;;;;22.57;95.23;101132.22;5078899;28;20059;-92
2023/09/11 08:33:54;;;;;;;26.90;17.90;;;;;;;22.60;95.66;101126.09;5095497;28;20028;-92
2023/09/11 08:36:27;;;;;;;22.70;17.00;;;;;;;22.66;95.95;101137.09;5112573;28;20453;-92
2023/09/11 08:38:55;;;;;;;23.58;17.38;;;;;;;22.70;94.46;101124.34;5079055;28;20445;-92
2023/09/11 08:41:23;;;;;;;27.13;18.40;;;;;;;22.77;95.08;101125.66;5078304;28;20468;-94
2023/09/11 08:43:52;;;;;;;28.03;17.33;;;;;;;22.85;94.54;101128.91;5078296;28;20499;-90
2023/09/11 08:46:19;;;;;;;30.17;18.20;;;;;;;22.90;94.10;101138.00;5095293;28;20070;-93
2023/09/11 08:48:46;;;;;;;31.08;17.98;;;;;;;22.98;94.83;101141.25;5095398;28;20379;-92
2023/09/11 08:51:20;;;;;;;22.95;17.85;;;;;;;23.04;94.28;101132.59;5110170;28;20065;-91
2023/09/11 08:53:52;;;;;;;25.15;17.10;;;;;;;23.16;93.81;101132.22;5115906;28;20122;-91
2023/09/11 08:56:43;;;;;;;28.67;17.80;;;;;;;23.24;92.17;101133.53;5115836;28;20060;-92
2023/09/11 08:59:10;;;;;;;25.33;17.05;;;;;;;23.35;92.52;101137.00;5116469;28;20036;-92
2023/09/11 09:01:37;;;;;;;26.80;17.10;;;;;;;23.45;91.66;101140.47;5111583;28;20024;-92
2023/09/11 09:04:04;;;;;;;26.27;17.75;;;;;;;23.53;90.58;101141.75;5094903;28;20084;-90
2023/09/11 09:06:32;;;;;;;23.70;16.38;;;;;;;23.60;89.97;101128.38;5094720;28;20034;-91
2023/09/11 09:09:29;;;;;;;26.17;16.63;;;;;;;23.74;90.69;101130.41;5094656;28;20032;-91
2023/09/11 09:11:54;;;;;;;25.27;16.73;;;;;;;23.88;90.06;101138.84;5077075;28;20391;-90
2023/09/11 09:14:21;;;;;;;24.40;16.95;;;;;;;23.94;89.35;101127.38;5094342;28;20020;-89
2023/09/11 09:16:47;;;;;;;24.60;15.93;;;;;;;24.07;89.20;101136.09;5094378;28;20032;-89
2023/09/11 09:19:13;;;;;;;24.00;15.73;;;;;;;24.14;87.40;101131.00;5094473;28;20024;-89
2023/09/11 09:22:07;;;;;;;25.38;15.45;;;;;;;24.26;87.82;101139.66;5094803;28;20020;-89
2023/09/11 09:24:36;;;;;;;21.77;16.60;;;;;;;24.32;85.49;101124.59;5094276;28;20062;-88
2023/09/11 09:27:06;;;;;;;21.70;14.90;;;;;;;24.46;85.17;101143.25;5094395;28;20079;-90
2023/09/11 09:29:37;;;;;;;18.43;13.20;;;;;;;24.60;83.15;101135.81;5094402;28;20427;-89
2023/09/11 09:32:07;;;;;;;17.85;13.43;;;;;;;24.66;83.02;101131.03;5094170;28;20038;-89
2023/09/11 09:34:36;;;;;;;18.92;12.82;;;;;;;24.80;81.56;101137.44;5094317;28;20024;-88
2023/09/11 09:37:07;;;;;;;20.42;12.75;;;;;;;24.95;82.01;101135.47;5094114;28;20032;-89
2023/09/11 09:39:40;;;;;;;19.90;12.43;;;;;;;25.12;81.44;101134.91;5095421;28;20119;-89
2023/09/11 09:42:10;;;;;;;19.97;12.40;;;;;;;25.20;78.34;101143.34;5094147;28;20024;-88
2023/09/11 09:44:41;;;;;;;23.65;13.15;;;;;;;25.33;77.20;101138.13;5093752;28;20381;-89
2023/09/11 09:47:18;;;;;;;19.80;11.68;;;;;;;25.44;75.92;101133.19;5092993;28;20063;-89
2023/09/11 09:49:54;;;;;;;19.20;10.20;;;;;;;25.59;75.34;101134.84;5077703;28;20040;-89
2023/09/11 09:52:37;;;;;;;16.05;10.20;;;;;;;25.65;75.09;101134.41;5094045;28;20048;-89
2023/09/11 09:55:03;;;;;;;18.60;10.00;;;;;;;25.83;73.45;101126.25;5094146;28;20451;-89
2023/09/11 09:57:31;;;;;;;15.50;9.50;;;;;;;25.95;71.74;101125.69;5093377;28;20108;-89
2023/09/11 09:59:59;;;;;;;12.88;9.02;;;;;;;26.06;71.35;101132.72;5093723;28;20051;-89
2023/09/11 10:02:34;;;;;;;12.48;10.10;;;;;;;26.14;70.55;101128.34;5093254;28;20054;-89
2023/09/11 10:05:13;;;;;;;15.40;10.38;;;;;;;26.30;70.20;101126.03;5076850;28;20031;-89
2023/09/11 10:07:51;;;;;;;11.90;9.33;;;;;;;26.47;69.30;101142.00;5093560;28;20024;-89
2023/09/11 10:10:22;;;;;;;14.18;9.70;;;;;;;26.60;69.29;101141.97;5093019;28;20027;-89
2023/09/11 10:13:00;;;;;;;14.43;8.52;;;;;;;26.67;69.67;101137.91;5093404;28;20055;-89
2023/09/11 10:15:38;;;;;;;13.90;8.40;;;;;;;26.79;67.76;101144.53;5093364;28;20039;-89
2023/09/11 10:18:07;;;;;;;15.82;8.43;;;;;;;26.85;66.62;101136.88;5093511;28;20039;-89
2023/09/11 10:20:35;;;;;;;15.67;8.83;;;;;;;26.95;66.67;101136.59;5093250;28;20024;-89
2023/09/11 10:23:08;;;;;;;13.00;8.90;;;;;;;26.99;66.39;101130.41;5093209;28;20057;-89
2023/09/11 10:25:42;;;;;;;11.32;7.70;;;;;;;27.11;64.75;101130.63;5093603;28;20031;-90
2023/09/11 10:28:15;;;;;;;17.20;8.20;;;;;;;27.07;64.25;101138.78;5093783;28;20050;-89
2023/09/11 10:31:09;;;;;;;17.83;8.27;;;;;;;27.14;64.98;101130.00;5094025;28;20122;-89
2023/09/11 10:33:41;;;;;;;13.70;7.97;;;;;;;27.37;65.06;101118.78;5092837;28;20035;-89
2023/09/11 10:36:14;;;;;;;11.55;7.35;;;;;;;27.51;63.49;101113.09;5093034;28;20051;-90
2023/09/11 10:38:46;;;;;;;16.98;8.98;;;;;;;27.63;62.92;101119.66;5092360;28;20385;-89
2023/09/11 10:41:12;;;;;;;17.00;8.60;;;;;;;27.83;62.80;101117.41;5092912;28;20063;-88
2023/09/11 10:43:40;;;;;;;15.30;9.48;;;;;;;27.97;62.72;101120.06;5092296;28;20418;-89
2023/09/11 10:46:22;;;;;;;16.63;9.77;;;;;;;28.14;62.59;101117.28;5076253;28;20097;-90
2023/09/11 10:48:50;;;;;;;14.35;8.13;;;;;;;28.37;62.44;101107.91;5092956;28;20130;-89
2023/09/11 10:51:16;;;;;;;12.00;8.13;;;;;;;28.56;62.28;101115.94;5092823;28;20067;-89
2023/09/11 10:53:44;;;;;;;14.93;8.67;;;;;;;28.63;59.43;101114.31;5075814;28;20063;-90
2023/09/11 10:56:10;;;;;;;14.13;9.20;;;;;;;28.92;59.44;101114.69;5092771;28;20086;-90
2023/09/11 10:58:38;;;;;;;15.90;8.25;;;;;;;28.98;59.28;101114.19;5075556;28;20476;-90
2023/09/11 11:01:07;;;;;;;13.88;7.97;;;;;;;29.37;58.09;101108.63;5092469;28;20024;-90
2023/09/11 11:03:34;;;;;;;12.43;8.25;;;;;;;29.56;56.36;101110.97;5093890;28;20052;-90
2023/09/11 11:06:06;;;;;;;9.83;7.60;;;;;;;29.87;55.72;101109.81;5092329;28;20032;-90
2023/09/11 11:08:36;;;;;;;16.02;8.23;;;;;;;29.88;55.59;101103.03;5092263;28;20024;-90
2023/09/11 11:11:02;;;;;;;16.05;8.43;;;;;;;30.52;52.98;101101.81;5109510;28;20100;-90
2023/09/11 11:13:28;;;;;;;12.35;8.30;;;;;;;32.29;48.55;101101.84;5109376;28;20495;-90
2023/09/11 11:16:15;;;;;;;12.83;7.70;;;;;;;33.97;44.58;101109.25;5092265;28;20056;-90
2023/09/11 11:18:42;;;;;;;11.30;7.13;;;;;;;34.99;40.56;101108.00;5092454;28;20031;-90
2023/09/11 11:21:12;;;;;;;12.50;7.25;;;;;;;36.28;38.94;101103.41;5092385;28;20036;-90